Time;durP1;ratioP1;P1;durP2;ratioP2;P2;SDS_P1;SDS_P2;PMS_P1;PMS_P2;Temp;Humidity;BMP_temperature;BMP_pressure;BME280_temperature;BME280_humidity;BME280_pressure;Samples;Min_cycle;Max_cycle;Signal;HPM_P1;HPM_P2
2023/09/20 00:01:10;;;;;;;4.13;3.17;;;28.00;49.80;;;;;;4995141;28;20166;-69
2023/09/20 00:03:36;;;;;;;4.03;2.35;;;27.90;49.30;;;;;;4995381;28;20046;-69
2023/09/20 00:06:09;;;;;;;8.85;3.17;;;27.90;49.30;;;;;;4995274;28;20640;-69
2023/09/20 00:08:35;;;;;;;5.40;2.97;;;28.00;49.80;;;;;;4992902;28;20849;-69
2023/09/20 00:11:01;;;;;;;4.20;3.63;;;27.90;49.40;;;;;;4994959;28;20100;-69
2023/09/20 00:13:27;;;;;;;3.25;2.83;;;27.90;49.50;;;;;;4994950;28;20042;-69
2023/09/20 00:15:55;;;;;;;5.57;3.08;;;28.10;50.10;;;;;;4994991;28;20080;-69
2023/09/20 00:18:25;;;;;;;7.05;3.22;;;27.90;49.60;;;;;;5011625;28;20604;-69
2023/09/20 00:20:51;;;;;;;4.45;3.00;;;27.90;49.60;;;;;;5011632;28;20054;-70
2023/09/20 00:23:21;;;;;;;5.78;3.00;;;28.10;50.20;;;;;;5012087;28;20081;-69
2023/09/20 00:25:49;;;;;;;3.92;2.45;;;28.00;50.20;;;;;;5012038;28;20513;-69
2023/09/20 00:28:19;;;;;;;3.17;2.88;;;28.10;50.30;;;;;;5011815;28;20115;-69
2023/09/20 00:30:45;;;;;;;3.65;2.83;;;28.00;50.30;;;;;;4995560;28;20129;-70
2023/09/20 00:33:11;;;;;;;8.00;3.20;;;28.00;50.40;;;;;;5011726;28;20120;-69
2023/09/20 00:35:41;;;;;;;3.53;2.45;;;28.00;50.40;;;;;;5011456;28;20038;-69
2023/09/20 00:38:08;;;;;;;3.85;3.03;;;28.00;50.40;;;;;;5011860;28;20204;-69
2023/09/20 00:40:35;;;;;;;6.55;3.03;;;28.10;50.40;;;;;;4995114;28;20046;-68
2023/09/20 00:43:06;;;;;;;5.63;3.00;;;28.10;50.40;;;;;;5011668;28;20053;-68
2023/09/20 00:45:32;;;;;;;3.88;2.58;;;28.00;50.40;;;;;;5011258;28;20044;-69
2023/09/20 00:47:59;;;;;;;4.60;3.25;;;28.10;50.40;;;;;;4995232;28;20046;-69
2023/09/20 00:50:34;;;;;;;4.10;3.20;;;28.10;50.40;;;;;;4996108;28;20110;-69
2023/09/20 00:53:00;;;;;;;7.28;2.75;;;28.10;50.50;;;;;;4994435;28;20035;-69
2023/09/20 00:55:32;;;;;;;8.43;3.10;;;28.20;50.50;;;;;;4992751;28;20030;-69
2023/09/20 00:58:06;;;;;;;4.35;3.30;;;28.10;50.40;;;;;;4992720;28;20387;-69
2023/09/20 01:00:33;;;;;;;3.72;3.15;;;28.10;50.40;;;;;;4994166;28;20410;-70
2023/09/20 01:03:01;;;;;;;3.50;3.20;;;28.00;50.40;;;;;;4994720;28;20045;-69
2023/09/20 01:05:28;;;;;;;3.53;3.20;;;28.00;50.40;;;;;;4993994;28;20034;-70
2023/09/20 01:07:56;;;;;;;7.55;3.30;;;28.20;50.40;;;;;;4992300;28;20034;-70
2023/09/20 01:10:24;;;;;;;5.28;3.10;;;28.10;50.40;;;;;;4993843;28;20368;-70
2023/09/20 01:12:58;;;;;;;7.57;3.13;;;28.30;50.40;;;;;;4993140;28;20037;-69
2023/09/20 01:15:26;;;;;;;6.22;3.60;;;28.20;50.40;;;;;;4993002;28;20038;-69
2023/09/20 01:17:56;;;;;;;3.67;3.10;;;28.10;50.40;;;;;;4992252;28;20093;-69
2023/09/20 01:20:24;;;;;;;4.22;2.65;;;28.10;50.40;;;;;;4993047;28;20092;-69
2023/09/20 01:22:53;;;;;;;3.42;2.58;;;28.10;50.40;;;;;;4991896;28;20057;-69
2023/09/20 01:25:25;;;;;;;5.53;3.35;;;28.20;50.40;;;;;;4992492;28;20034;-69
2023/09/20 01:27:59;;;;;;;4.38;2.78;;;28.20;50.40;;;;;;4993673;28;20038;-69
2023/09/20 01:30:29;;;;;;;4.93;2.38;;;28.30;50.40;;;;;;4992231;28;20060;-69
2023/09/20 01:33:00;;;;;;;3.45;2.95;;;28.10;50.30;;;;;;4992150;28;20475;-69
2023/09/20 01:35:29;;;;;;;6.15;3.35;;;28.30;50.30;;;;;;4992690;28;20117;-69
2023/09/20 01:37:56;;;;;;;7.50;3.38;;;28.30;50.30;;;;;;4993440;28;20498;-69
2023/09/20 01:40:25;;;;;;;5.97;3.42;;;28.30;50.30;;;;;;4992204;28;20038;-68
2023/09/20 01:42:53;;;;;;;7.57;3.60;;;28.30;50.20;;;;;;4992415;28;20051;-70
2023/09/20 01:45:20;;;;;;;4.70;3.17;;;28.10;50.30;;;;;;4993201;28;20081;-70
2023/09/20 01:47:49;;;;;;;3.35;2.97;;;28.10;50.20;;;;;;4993291;28;20038;-69
2023/09/20 01:50:25;;;;;;;3.47;2.95;;;28.20;50.20;;;;;;4992917;28;20034;-69
2023/09/20 01:52:52;;;;;;;3.13;2.83;;;28.10;50.20;;;;;;4992848;28;20462;-69
2023/09/20 01:55:23;;;;;;;5.20;2.85;;;28.20;50.20;;;;;;4993163;28;20438;-69
2023/09/20 01:57:51;;;;;;;5.07;3.08;;;28.10;50.20;;;;;;4991587;28;20114;-70
2023/09/20 02:00:22;;;;;;;4.60;3.40;;;28.30;50.20;;;;;;4991247;28;20505;-70
2023/09/20 02:02:51;;;;;;;;;;;28.10;50.20;;;;;;4993006;28;20046;-69
2023/09/20 02:05:17;;;;;;;4.97;4.10;;;28.10;50.20;;;;;;4993119;28;19945;-69
2023/09/20 02:07:46;;;;;;;8.60;4.32;;;28.20;50.20;;;;;;4991948;28;20133;-69
2023/09/20 02:10:14;;;;;;;7.57;4.70;;;28.10;50.20;;;;;;4992695;28;20064;-69
2023/09/20 02:12:43;;;;;;;9.00;5.15;;;28.10;50.30;;;;;;4992721;28;20065;-69
2023/09/20 02:15:11;;;;;;;9.77;4.90;;;28.10;50.30;;;;;;4991679;28;20062;-69
2023/09/20 02:17:39;;;;;;;4.68;3.67;;;28.00;50.30;;;;;;4975385;28;20042;-69
2023/09/20 02:20:09;;;;;;;5.95;3.75;;;28.10;50.40;;;;;;4990657;28;20430;-69
2023/09/20 02:22:39;;;;;;;6.57;3.92;;;28.00;50.40;;;;;;4992875;28;20496;-69
2023/09/20 02:25:11;;;;;;;8.18;4.32;;;28.00;50.40;;;;;;4992769;28;20065;-69
2023/09/20 02:27:39;;;;;;;8.93;4.73;;;28.10;50.40;;;;;;4975383;28;20034;-70
2023/09/20 02:30:16;;;;;;;7.30;4.50;;;28.10;50.40;;;;;;4991396;28;20062;-69
2023/09/20 02:32:44;;;;;;;4.80;3.80;;;28.10;50.40;;;;;;4991592;28;20044;-69
2023/09/20 02:35:10;;;;;;;5.28;4.28;;;28.10;50.40;;;;;;4992496;28;20033;-70
2023/09/20 02:37:37;;;;;;;7.85;4.93;;;28.10;50.50;;;;;;4992428;28;20110;-69
2023/09/20 02:40:13;;;;;;;6.80;4.18;;;28.10;50.50;;;;;;4992238;28;20129;-70
2023/09/20 02:42:54;;;;;;;6.63;4.60;;;28.10;50.50;;;;;;4992456;28;20126;-69
2023/09/20 02:45:24;;;;;;;5.65;4.47;;;28.20;50.50;;;;;;4975091;28;20033;-69
2023/09/20 02:47:52;;;;;;;6.63;4.53;;;28.00;50.50;;;;;;4990986;28;20062;-70
2023/09/20 02:50:24;;;;;;;6.10;4.65;;;28.20;50.50;;;;;;5005043;28;20042;-69
2023/09/20 02:52:52;;;;;;;8.93;4.15;;;28.20;50.50;;;;;;5010884;28;20470;-69
2023/09/20 02:55:20;;;;;;;6.72;4.50;;;28.20;50.50;;;;;;5011742;28;20454;-70
2023/09/20 02:57:51;;;;;;;6.53;5.00;;;28.10;50.40;;;;;;5012254;28;20095;-69
2023/09/20 03:00:21;;;;;;;9.10;4.88;;;28.10;50.40;;;;;;5010609;28;20065;-69
2023/09/20 03:02:53;;;;;;;6.80;3.97;;;28.10;50.40;;;;;;4999613;28;20050;-69
2023/09/20 03:05:23;;;;;;;6.72;4.65;;;28.00;50.40;;;;;;4990877;28;20542;-69
2023/09/20 03:07:50;;;;;;;7.43;4.13;;;28.10;50.40;;;;;;5006530;28;20077;-69
2023/09/20 03:10:21;;;;;;;10.75;3.60;;;28.10;50.40;;;;;;4990870;28;20042;-69
2023/09/20 03:12:52;;;;;;;5.88;4.13;;;28.00;50.40;;;;;;4991047;28;20048;-69
2023/09/20 03:15:22;;;;;;;8.88;4.20;;;27.90;49.80;;;;;;4990946;28;20452;-70
2023/09/20 03:17:57;;;;;;;7.07;3.92;;;28.10;50.40;;;;;;4975776;28;20042;-68
2023/09/20 03:20:25;;;;;;;7.00;4.32;;;28.00;50.40;;;;;;5009968;28;20045;-69
2023/09/20 03:23:03;;;;;;;8.57;4.68;;;27.90;49.80;;;;;;5010800;28;20054;-69
2023/09/20 03:25:35;;;;;;;5.20;4.18;;;28.00;50.50;;;;;;5010747;28;20034;-69
2023/09/20 03:28:09;;;;;;;6.63;3.92;;;27.90;50.00;;;;;;5011693;28;20080;-69
2023/09/20 03:30:39;;;;;;;5.22;3.88;;;27.90;50.00;;;;;;5013747;28;20167;-71
2023/09/20 03:33:07;;;;;;;7.65;4.07;;;27.90;50.10;;;;;;5014055;28;20037;-69
2023/09/20 03:35:34;;;;;;;5.07;3.70;;;28.00;50.60;;;;;;5015358;28;20072;-69
2023/09/20 03:38:01;;;;;;;6.43;3.92;;;27.90;50.10;;;;;;5014307;28;20076;-69
2023/09/20 03:40:29;;;;;;;6.88;4.03;;;27.90;50.10;;;;;;5014101;28;20104;-70
2023/09/20 03:42:58;;;;;;;5.35;4.15;;;28.10;50.60;;;;;;5013861;28;20029;-69
2023/09/20 03:45:27;;;;;;;10.90;4.47;;;28.10;50.60;;;;;;5013710;28;20066;-69
2023/09/20 03:47:56;;;;;;;6.45;4.72;;;28.10;50.60;;;;;;5013917;28;20054;-69
2023/09/20 03:50:24;;;;;;;5.63;4.38;;;28.10;50.60;;;;;;5015064;28;20030;-69
2023/09/20 03:52:51;;;;;;;6.00;4.43;;;28.10;50.60;;;;;;5014113;28;20030;-69
2023/09/20 03:55:19;;;;;;;7.57;4.47;;;28.10;50.60;;;;;;5013865;28;20421;-70
2023/09/20 03:57:46;;;;;;;8.10;4.47;;;28.00;50.60;;;;;;5013536;28;20038;-71
2023/09/20 04:00:15;;;;;;;3.70;3.15;;;28.00;50.60;;;;;;5013302;28;20053;-69
2023/09/20 04:02:44;;;;;;;2.42;2.22;;;28.10;50.60;;;;;;5013435;28;20454;-69
2023/09/20 04:05:15;;;;;;;3.03;2.03;;;28.00;50.60;;;;;;5015060;28;20069;-69
2023/09/20 04:07:44;;;;;;;2.20;1.88;;;28.00;50.60;;;;;;5013292;28;20045;-69
2023/09/20 04:10:11;;;;;;;5.03;1.92;;;27.90;50.10;;;;;;5014473;28;20041;-69
2023/09/20 04:12:38;;;;;;;2.33;2.08;;;27.90;50.10;;;;;;5013100;28;20034;-68
2023/09/20 04:15:05;;;;;;;6.53;3.75;;;28.00;50.70;;;;;;5014662;28;20025;-69
2023/09/20 04:17:32;;;;;;;2.83;2.30;;;27.80;50.20;;;;;;5014026;28;20094;-67
2023/09/20 04:20:04;;;;;;;2.25;2.05;;;27.80;50.20;;;;;;5013049;28;20103;-68
2023/09/20 04:22:31;;;;;;;4.20;2.27;;;27.80;50.40;;;;;;5012691;28;20060;-68
2023/09/20 04:24:58;;;;;;;2.55;2.20;;;28.20;54.70;;;;;;5012819;28;20275;-68
2023/09/20 04:27:25;;;;;;;2.28;1.98;;;28.50;57.00;;;;;;5014308;28;20447;-68
2023/09/20 04:29:52;;;;;;;3.85;2.33;;;28.60;56.90;;;;;;5014160;28;20061;-69
2023/09/20 04:32:19;;;;;;;3.90;2.42;;;28.90;55.80;;;;;;5012644;28;20034;-67
2023/09/20 04:34:45;;;;;;;4.20;3.30;;;28.70;52.50;;;;;;5014025;28;20083;-67
2023/09/20 04:37:16;;;;;;;4.32;3.00;;;28.70;51.50;;;;;;5012934;28;20034;-66
2023/09/20 04:39:42;;;;;;;3.47;3.17;;;28.50;51.30;;;;;;5012583;28;20041;-67
2023/09/20 04:42:12;;;;;;;3.00;2.55;;;28.50;51.10;;;;;;4994796;28;20038;-66
2023/09/20 04:44:38;;;;;;;3.33;2.50;;;28.50;51.10;;;;;;5012039;28;20052;-67
2023/09/20 04:47:04;;;;;;;6.32;3.10;;;28.50;50.90;;;;;;5012476;28;20434;-67
2023/09/20 04:49:31;;;;;;;3.47;2.75;;;28.50;50.70;;;;;;5012527;28;20034;-70
2023/09/20 04:52:00;;;;;;;5.65;3.20;;;28.40;50.50;;;;;;5012148;28;20125;-69
2023/09/20 04:54:29;;;;;;;4.35;3.58;;;28.30;50.40;;;;;;5013546;28;20030;-69
2023/09/20 04:56:55;;;;;;;3.75;3.10;;;28.20;50.30;;;;;;5012497;28;20044;-69
2023/09/20 04:59:22;;;;;;;5.85;3.33;;;28.20;50.30;;;;;;5013247;28;20436;-67
2023/09/20 05:01:52;;;;;;;5.57;4.00;;;28.30;50.20;;;;;;4995277;28;20088;-67
2023/09/20 05:04:20;;;;;;;3.63;2.95;;;28.30;50.30;;;;;;5011954;28;20497;-67
2023/09/20 05:06:46;;;;;;;5.80;3.58;;;28.20;50.30;;;;;;5012127;28;20038;-67
2023/09/20 05:09:13;;;;;;;5.38;3.70;;;28.30;50.40;;;;;;5012014;28;20042;-66
2023/09/20 05:11:39;;;;;;;5.43;3.42;;;28.20;50.50;;;;;;5011748;28;20022;-67
2023/09/20 05:14:06;;;;;;;5.43;4.28;;;28.20;50.40;;;;;;5011948;28;20078;-66
2023/09/20 05:16:32;;;;;;;5.03;4.22;;;28.20;50.90;;;;;;5012090;28;20041;-65
2023/09/20 05:18:59;;;;;;;5.88;4.15;;;28.20;50.50;;;;;;5011472;28;20038;-66
2023/09/20 05:21:25;;;;;;;7.72;4.88;;;28.20;50.30;;;;;;5009935;28;20058;-66
2023/09/20 05:23:51;;;;;;;8.73;4.47;;;28.20;50.50;;;;;;5010395;28;20042;-64
2023/09/20 05:26:18;;;;;;;8.90;4.72;;;28.10;50.50;;;;;;4996042;28;20530;-66
2023/09/20 05:28:46;;;;;;;5.50;4.47;;;28.30;51.40;;;;;;4971227;28;20062;-65
2023/09/20 05:31:14;;;;;;;5.88;4.32;;;28.30;50.50;;;;;;4971399;28;20163;-66
2023/09/20 05:33:40;;;;;;;8.45;5.05;;;28.40;50.70;;;;;;4971030;28;20486;-65
2023/09/20 05:36:06;;;;;;;6.20;5.03;;;28.30;50.80;;;;;;4971294;28;20039;-65
2023/09/20 05:38:32;;;;;;;7.93;4.20;;;28.30;50.60;;;;;;4971049;28;20499;-63
2023/09/20 05:40:58;;;;;;;11.52;6.18;;;28.30;50.10;;;;;;4971343;28;20057;-66
2023/09/20 05:43:24;;;;;;;10.82;8.18;;;28.40;50.90;;;;;;4971118;28;20411;-66
2023/09/20 05:45:50;;;;;;;9.93;7.57;;;28.30;52.70;;;;;;4990125;28;20054;-66
2023/09/20 05:48:16;;;;;;;8.75;5.03;;;28.40;55.00;;;;;;4990434;28;20042;-66
2023/09/20 05:50:43;;;;;;;7.70;5.18;;;28.40;51.30;;;;;;4990422;28;20039;-66
2023/09/20 05:53:12;;;;;;;7.68;4.22;;;28.30;53.00;;;;;;4974710;28;20514;-63
2023/09/20 05:55:39;;;;;;;10.00;4.13;;;28.30;53.00;;;;;;4970956;28;20049;-64
2023/09/20 05:58:05;;;;;;;5.60;3.72;;;28.40;53.10;;;;;;4971026;28;20050;-64
2023/09/20 06:00:33;;;;;;;6.78;3.67;;;28.30;53.00;;;;;;5003292;28;20042;-64
2023/09/20 06:02:59;;;;;;;8.02;3.85;;;28.20;52.80;;;;;;5009688;28;20073;-65
2023/09/20 06:05:26;;;;;;;5.30;3.30;;;28.30;52.50;;;;;;5009898;28;20398;-66
2023/09/20 06:07:57;;;;;;;4.10;3.05;;;28.30;52.20;;;;;;5009871;28;20046;-65
2023/09/20 06:10:24;;;;;;;6.72;3.85;;;28.20;51.70;;;;;;5009569;28;20125;-65
2023/09/20 06:12:53;;;;;;;4.00;3.45;;;28.20;51.60;;;;;;5009484;28;20482;-65
2023/09/20 06:15:19;;;;;;;7.45;3.47;;;28.20;51.80;;;;;;5009635;28;20042;-66
2023/09/20 06:17:47;;;;;;;4.95;3.50;;;28.20;52.30;;;;;;5009803;28;20081;-67
2023/09/20 06:20:19;;;;;;;4.35;3.22;;;28.20;52.30;;;;;;5009615;28;20054;-65
2023/09/20 06:22:49;;;;;;;8.35;4.10;;;28.30;52.60;;;;;;5004258;28;20077;-66
2023/09/20 06:25:16;;;;;;;4.97;3.72;;;28.20;52.70;;;;;;4992699;28;20081;-66
2023/09/20 06:27:42;;;;;;;6.22;3.53;;;28.30;52.80;;;;;;5001247;28;20030;-66
2023/09/20 06:30:14;;;;;;;7.85;3.38;;;28.30;53.60;;;;;;5012036;28;20049;-67
2023/09/20 06:32:42;;;;;;;5.30;3.20;;;28.20;53.30;;;;;;4997149;28;20034;-66
2023/09/20 06:35:09;;;;;;;3.92;3.10;;;28.30;53.50;;;;;;4991474;28;20121;-66
2023/09/20 06:37:36;;;;;;;6.43;2.75;;;28.30;53.70;;;;;;4992430;28;20391;-65
2023/09/20 06:40:12;;;;;;;5.20;2.95;;;28.30;53.60;;;;;;4997482;28;20466;-65
2023/09/20 06:42:38;;;;;;;5.47;3.22;;;28.30;53.60;;;;;;5011583;28;20040;-65
2023/09/20 06:45:08;;;;;;;3.25;2.78;;;28.40;53.60;;;;;;5011941;28;20477;-65
2023/09/20 06:47:34;;;;;;;8.10;3.28;;;28.30;53.60;;;;;;5010420;28;20041;-65
2023/09/20 06:50:03;;;;;;;6.30;2.80;;;28.30;53.70;;;;;;5011791;28;20034;-64
2023/09/20 06:52:29;;;;;;;3.08;2.78;;;28.30;53.80;;;;;;5011496;28;20402;-66
2023/09/20 06:54:55;;;;;;;6.10;2.95;;;28.40;54.20;;;;;;5011674;28;20496;-65
2023/09/20 06:57:22;;;;;;;3.03;2.70;;;28.40;54.30;;;;;;5010437;28;20042;-63
2023/09/20 06:59:51;;;;;;;6.47;3.20;;;28.40;54.30;;;;;;5011555;28;20075;-65
2023/09/20 07:02:17;;;;;;;4.70;2.97;;;28.40;54.40;;;;;;5010799;28;20401;-64
2023/09/20 07:04:44;;;;;;;10.82;3.08;;;28.40;54.40;;;;;;4995055;28;20481;-68
2023/09/20 07:07:10;;;;;;;3.90;3.20;;;28.40;54.50;;;;;;5015834;28;20034;-66
2023/09/20 07:09:37;;;;;;;3.67;2.72;;;28.50;55.00;;;;;;5015301;28;20084;-68
2023/09/20 07:12:03;;;;;;;3.90;2.70;;;28.40;55.40;;;;;;5014251;28;20057;-69
2023/09/20 07:14:31;;;;;;;3.03;2.55;;;28.50;55.30;;;;;;5015585;28;20030;-69
2023/09/20 07:17:00;;;;;;;3.60;2.97;;;28.50;55.00;;;;;;5014465;28;20693;-69
2023/09/20 07:19:29;;;;;;;4.97;2.72;;;28.40;55.00;;;;;;5015578;28;20386;-69
2023/09/20 07:21:59;;;;;;;3.58;2.63;;;28.40;54.80;;;;;;5014957;28;20576;-68
2023/09/20 07:24:26;;;;;;;2.97;2.70;;;28.50;54.60;;;;;;5013356;28;20085;-68
2023/09/20 07:26:52;;;;;;;3.03;2.30;;;28.40;54.40;;;;;;5014220;28;20148;-68
2023/09/20 07:29:18;;;;;;;2.97;1.98;;;28.40;54.40;;;;;;5015509;28;20029;-68
2023/09/20 07:31:45;;;;;;;5.93;2.88;;;28.40;54.40;;;;;;5005111;28;20049;-68
2023/09/20 07:34:13;;;;;;;5.57;3.05;;;28.40;54.50;;;;;;4995218;28;20030;-68
2023/09/20 07:36:49;;;;;;;4.95;2.63;;;28.50;54.50;;;;;;4994976;28;20035;-64
2023/09/20 07:39:17;;;;;;;11.00;2.85;;;28.50;54.30;;;;;;4995224;28;20764;-67
2023/09/20 07:41:50;;;;;;;3.35;2.13;;;28.30;53.90;;;;;;4994856;28;20053;-67
2023/09/20 07:44:17;;;;;;;3.85;2.38;;;28.40;53.60;;;;;;4995171;28;20505;-68
2023/09/20 07:46:43;;;;;;;3.42;2.50;;;28.50;53.30;;;;;;4994827;28;20039;-68
2023/09/20 07:49:10;;;;;;;2.90;2.58;;;28.40;53.00;;;;;;4994765;28;20030;-67
2023/09/20 07:51:39;;;;;;;3.25;2.42;;;28.40;52.60;;;;;;4994826;28;20034;-67
2023/09/20 07:54:14;;;;;;;2.35;2.10;;;28.30;52.40;;;;;;4993126;28;20038;-68
2023/09/20 07:56:43;;;;;;;2.45;2.25;;;28.30;52.20;;;;;;4994886;28;20044;-71
2023/09/20 07:59:13;;;;;;;3.15;2.65;;;28.30;52.20;;;;;;4994721;28;20138;-69
2023/09/20 08:01:43;;;;;;;3.75;2.55;;;28.20;52.10;;;;;;4994159;28;20034;-68
2023/09/20 08:04:10;;;;;;;2.92;2.70;;;28.20;52.10;;;;;;4993430;28;20031;-70
2023/09/20 08:06:37;;;;;;;4.40;3.03;;;28.30;52.30;;;;;;4995057;28;20366;-71
2023/09/20 08:09:04;;;;;;;4.60;2.55;;;28.20;52.50;;;;;;4993714;28;20531;-71
2023/09/20 08:11:32;;;;;;;2.30;2.10;;;28.30;53.20;;;;;;4995162;28;20042;-71
2023/09/20 08:13:59;;;;;;;3.40;2.47;;;28.20;53.30;;;;;;4994710;28;20038;-70
2023/09/20 08:16:33;;;;;;;3.63;2.60;;;28.10;53.20;;;;;;4994556;28;20038;-73
2023/09/20 08:19:21;;;;;;;2.40;2.20;;;28.30;53.30;;;;;;4993555;28;20512;-71
2023/09/20 08:21:47;;;;;;;3.50;2.15;;;28.30;53.20;;;;;;4994979;28;20070;-71
2023/09/20 09:00:34;;;;;;;2.17;1.98;;;28.90;52.10;;;;;;5013670;28;20417;-66
2023/09/20 09:03:03;;;;;;;3.03;2.28;;;29.00;52.70;;;;;;5013430;28;20367;-66
2023/09/20 09:05:30;;;;;;;314.00;83.75;;;28.90;52.10;;;;;;5013377;28;20041;-66
2023/09/20 09:07:58;;;;;;;52.38;37.92;;;29.10;54.30;;;;;;5012506;28;20072;-67
2023/09/20 09:10:25;;;;;;;33.47;18.50;;;29.40;52.30;;;;;;5013178;28;20048;-67
2023/09/20 09:12:51;;;;;;;27.85;15.60;;;29.20;52.30;;;;;;5012978;28;20029;-68
2023/09/20 09:15:18;;;;;;;21.00;12.00;;;29.20;52.20;;;;;;4999842;28;20117;-68
2023/09/20 09:17:46;;;;;;;18.85;11.40;;;29.10;52.20;;;;;;4993835;28;20069;-68
2023/09/20 09:20:19;;;;;;;14.75;8.43;;;29.10;52.20;;;;;;4993515;28;20054;-68
2023/09/20 09:22:45;;;;;;;;;;;29.10;51.90;;;;;;4994092;28;20054;-69
2023/09/20 09:25:13;;;;;;;14.20;7.93;;;29.20;51.90;;;;;;4993299;28;19910;-66
2023/09/20 09:27:40;;;;;;;14.65;8.23;;;29.30;51.90;;;;;;4992773;28;20454;-67
2023/09/20 09:30:12;;;;;;;10.82;6.82;;;29.10;51.70;;;;;;4993259;28;20031;-68
2023/09/20 09:32:39;;;;;;;;;;;29.10;51.80;;;;;;5000114;28;20410;-67
2023/09/20 09:35:06;;;;;;;7.63;5.32;;;29.10;51.80;;;;;;4993471;28;19925;-71
2023/09/20 09:37:33;;;;;;;9.13;5.30;;;29.10;51.70;;;;;;4993256;28;20052;-67
2023/09/20 09:40:04;;;;;;;8.82;4.78;;;29.10;51.80;;;;;;4993070;28;20053;-67
2023/09/20 09:42:31;;;;;;;7.28;5.25;;;29.20;51.80;;;;;;4992143;28;20112;-69
2023/09/20 09:44:58;;;;;;;9.15;5.88;;;29.10;52.60;;;;;;4992960;28;20378;-68
2023/09/20 09:47:25;;;;;;;8.73;5.47;;;29.00;52.90;;;;;;4992080;28;20030;-66
2023/09/20 09:49:54;;;;;;;8.43;5.03;;;29.00;52.50;;;;;;4992615;28;20046;-67
2023/09/20 09:52:24;;;;;;;10.50;5.30;;;29.10;52.50;;;;;;4992907;28;20026;-68
2023/09/20 09:54:54;;;;;;;6.93;5.20;;;29.00;52.60;;;;;;4992639;28;20046;-66
2023/09/20 09:57:21;;;;;;;6.15;4.78;;;28.90;52.00;;;;;;4993167;28;20049;-65
2023/09/20 09:59:48;;;;;;;6.50;4.55;;;28.90;52.10;;;;;;4991251;28;20058;-66
2023/09/20 10:02:31;;;;;;;9.95;4.57;;;29.00;52.40;;;;;;4992916;28;20110;-66
2023/09/20 10:05:02;;;;;;;9.73;4.63;;;29.00;52.50;;;;;;4991012;28;20034;-66
2023/09/20 10:07:37;;;;;;;5.50;4.03;;;28.90;52.30;;;;;;4992311;28;20487;-66
2023/09/20 10:10:12;;;;;;;8.95;4.00;;;28.80;52.50;;;;;;4990945;28;20340;-66
2023/09/20 10:12:46;;;;;;;7.00;4.45;;;28.80;52.80;;;;;;4992430;28;20494;-68
2023/09/20 10:15:14;;;;;;;6.63;4.07;;;28.80;52.60;;;;;;4992005;28;20057;-66
2023/09/20 10:17:56;;;;;;;6.70;3.53;;;28.80;52.80;;;;;;4992165;28;20034;-65
2023/09/20 10:20:22;;;;;;;7.10;4.20;;;28.80;52.90;;;;;;4992344;28;20554;-67
2023/09/20 10:22:51;;;;;;;3.58;3.28;;;28.60;53.00;;;;;;4990590;28;20304;-69
2023/09/20 10:25:32;;;;;;;5.75;3.70;;;28.70;52.90;;;;;;4991920;28;20109;-68
2023/09/20 10:28:08;;;;;;;9.60;4.50;;;28.70;53.00;;;;;;4992440;28;20042;-70
2023/09/20 10:31:03;;;;;;;45.28;9.48;;;28.80;56.70;;;;;;4991882;28;20173;-70
2023/09/20 10:33:55;;;;;;;4.68;3.88;;;29.30;57.90;;;;;;4991999;28;20038;-70
2023/09/20 10:36:28;;;;;;;8.52;4.57;;;29.50;57.80;;;;;;4992255;28;20398;-68
2023/09/20 10:39:17;;;;;;;5.55;3.42;;;29.40;54.40;;;;;;4991622;28;20049;-70
2023/09/20 10:41:44;;;;;;;5.80;3.33;;;29.20;53.50;;;;;;4973740;28;20043;-71
2023/09/20 10:44:43;;;;;;;7.70;3.88;;;29.10;53.70;;;;;;4989808;28;20046;-70
2023/09/20 10:47:14;;;;;;;4.97;3.42;;;29.00;53.50;;;;;;4931760;29;20054;-67
2023/09/20 10:49:50;;;;;;;5.75;4.05;;;29.10;53.80;;;;;;4915987;29;20075;-68
2023/09/20 10:52:32;;;;;;;5.05;4.32;;;29.00;53.70;;;;;;4931788;29;20400;-69
2023/09/20 10:55:28;;;;;;;6.13;4.90;;;29.10;53.70;;;;;;4931635;29;20106;-68
2023/09/20 10:57:56;;;;;;;4.10;3.70;;;29.40;58.50;;;;;;4912706;29;20448;-69
2023/09/20 11:00:27;;;;;;;6.10;4.80;;;29.70;63.30;;;;;;4912317;29;20076;-68
2023/09/20 11:02:54;;;;;;;4.95;4.05;;;30.00;58.20;;;;;;4912512;29;20048;-68
2023/09/20 11:05:22;;;;;;;4.07;3.47;;;29.90;57.20;;;;;;4912587;29;20040;-68
2023/09/20 11:07:50;;;;;;;7.43;3.88;;;30.50;53.90;;;;;;4912532;29;20130;-68
2023/09/20 11:10:19;;;;;;;7.15;3.75;;;30.50;53.20;;;;;;4903931;29;20144;-69
2023/09/20 11:12:45;;;;;;;3.17;2.90;;;30.60;51.90;;;;;;4893894;29;20501;-67
2023/09/20 11:15:14;;;;;;;3.97;3.47;;;30.70;52.20;;;;;;4901785;29;20036;-68
2023/09/20 11:17:40;;;;;;;3.63;3.30;;;30.80;55.90;;;;;;4911831;29;20512;-68
2023/09/20 11:20:08;;;;;;;3.45;3.15;;;30.90;51.40;;;;;;4893583;29;20048;-67
2023/09/20 11:22:35;;;;;;;4.57;3.70;;;30.70;50.70;;;;;;4901403;29;20152;-68
2023/09/20 11:25:04;;;;;;;6.63;3.38;;;30.50;49.80;;;;;;4912651;29;20119;-69
2023/09/20 11:27:34;;;;;;;2.88;2.67;;;30.30;50.10;;;;;;4912524;29;20158;-70
2023/09/20 11:30:19;;;;;;;4.18;3.40;;;30.20;50.20;;;;;;4912774;29;20036;-69
2023/09/20 11:32:45;;;;;;;3.38;2.78;;;30.10;51.30;;;;;;4928971;29;20028;-69
2023/09/20 11:35:30;;;;;;;3.50;3.20;;;30.20;51.50;;;;;;4982157;28;20056;-69
2023/09/20 11:37:56;;;;;;;3.78;3.20;;;30.30;51.10;;;;;;5011511;28;20061;-70
2023/09/20 11:40:22;;;;;;;6.45;3.83;;;30.30;50.60;;;;;;5026843;28;20054;-70
2023/09/20 11:42:48;;;;;;;3.53;3.17;;;30.20;52.20;;;;;;5028263;28;20064;-70
2023/09/20 11:45:16;;;;;;;3.38;3.03;;;30.30;53.50;;;;;;5027935;28;20038;-69
2023/09/20 11:47:42;;;;;;;3.33;3.03;;;30.30;50.90;;;;;;5027728;28;20030;-70
2023/09/20 11:50:13;;;;;;;4.97;3.55;;;30.30;50.20;;;;;;5028123;28;20044;-70
2023/09/20 11:52:46;;;;;;;5.53;3.40;;;30.30;49.60;;;;;;5014987;28;20088;-70
2023/09/20 11:55:13;;;;;;;3.88;3.47;;;30.20;49.40;;;;;;5031529;28;20041;-68
2023/09/20 11:57:46;;;;;;;9.98;3.65;;;30.20;49.40;;;;;;5031502;28;20220;-68
2023/09/20 12:00:19;;;;;;;5.07;3.42;;;30.10;49.50;;;;;;5031796;28;20042;-70
2023/09/20 12:02:46;;;;;;;4.38;3.40;;;30.00;49.90;;;;;;5031625;28;20057;-67
2023/09/20 12:05:12;;;;;;;5.53;3.42;;;30.20;51.70;;;;;;5031614;28;20501;-70
2023/09/20 12:07:38;;;;;;;4.57;3.53;;;30.20;51.70;;;;;;5031326;28;20508;-70
2023/09/20 12:10:06;;;;;;;3.92;3.35;;;30.20;55.90;;;;;;5031621;28;20034;-72
2023/09/20 12:12:33;;;;;;;5.18;3.22;;;30.30;52.20;;;;;;4991972;28;20586;-70
2023/09/20 12:14:59;;;;;;;8.02;3.80;;;30.50;52.90;;;;;;4992079;28;20051;-68
2023/09/20 12:17:25;;;;;;;3.95;3.55;;;30.70;53.00;;;;;;4991971;28;20042;-68
2023/09/20 12:19:51;;;;;;;7.13;4.03;;;30.70;51.90;;;;;;4991601;28;20046;-72
2023/09/20 12:22:20;;;;;;;4.65;3.85;;;30.60;54.00;;;;;;4992044;28;20510;-69
2023/09/20 12:24:46;;;;;;;6.20;4.80;;;30.70;52.50;;;;;;4975152;28;20047;-73
2023/09/20 12:27:11;;;;;;;3.72;3.30;;;30.60;51.70;;;;;;4991663;28;20386;-73
2023/09/20 12:29:37;;;;;;;5.15;4.18;;;30.70;52.10;;;;;;4975144;28;20034;-72
2023/09/20 12:32:04;;;;;;;6.15;4.68;;;30.90;56.40;;;;;;4991559;28;20034;-69
2023/09/20 12:34:30;;;;;;;17.27;5.63;;;31.00;54.80;;;;;;4991357;28;20043;-70
2023/09/20 12:36:56;;;;;;;4.47;3.95;;;31.30;57.00;;;;;;4991406;28;20542;-68
2023/09/20 12:39:23;;;;;;;6.60;4.25;;;31.20;55.20;;;;;;4991217;28;20549;-70
2023/09/20 12:41:49;;;;;;;6.30;3.78;;;31.40;55.10;;;;;;4991094;28;20117;-72
2023/09/20 12:44:16;;;;;;;10.50;3.70;;;31.50;55.10;;;;;;4991387;28;20121;-72
2023/09/20 12:46:42;;;;;;;4.88;3.42;;;31.60;53.20;;;;;;4991098;28;20046;-71
2023/09/20 12:49:08;;;;;;;7.85;4.40;;;31.50;53.80;;;;;;4991646;28;20055;-70
2023/09/20 12:51:34;;;;;;;4.85;4.20;;;31.60;54.50;;;;;;4993791;28;20089;-71
2023/09/20 12:54:03;;;;;;;7.30;4.05;;;31.60;56.00;;;;;;4993875;28;20038;-70
2023/09/20 12:56:30;;;;;;;8.25;4.38;;;31.60;53.70;;;;;;4993533;28;20042;-68
2023/09/20 12:58:57;;;;;;;8.88;5.22;;;31.60;55.90;;;;;;4993802;28;20045;-69
2023/09/20 13:01:23;;;;;;;5.95;5.03;;;31.70;57.40;;;;;;4995502;28;20367;-72
2023/09/20 13:03:51;;;;;;;7.32;4.38;;;31.70;55.60;;;;;;5010933;28;20144;-70
2023/09/20 13:06:17;;;;;;;14.90;4.88;;;31.70;55.70;;;;;;5012951;28;20386;-71
2023/09/20 13:08:45;;;;;;;15.63;6.43;;;31.90;56.60;;;;;;5006780;28;20044;-72
2023/09/20 13:11:10;;;;;;;7.45;4.72;;;32.00;59.10;;;;;;4993754;28;20038;-71
2023/09/20 13:13:40;;;;;;;22.92;6.43;;;31.90;52.70;;;;;;4993272;28;20034;-71
2023/09/20 13:16:09;;;;;;;24.98;7.30;;;31.90;51.20;;;;;;4993293;28;20031;-69
2023/09/20 13:18:38;;;;;;;19.48;6.82;;;31.90;50.10;;;;;;4993231;28;20027;-70
2023/09/20 13:21:05;;;;;;;5.05;3.95;;;31.80;53.90;;;;;;4991838;28;20062;-69
2023/09/20 13:23:32;;;;;;;9.18;4.13;;;31.90;51.40;;;;;;4993193;28;20026;-68
2023/09/20 13:25:59;;;;;;;6.38;4.25;;;31.90;52.00;;;;;;4993036;28;20041;-68
2023/09/20 13:28:25;;;;;;;7.70;4.03;;;31.90;54.60;;;;;;4993218;28;20113;-70
2023/09/20 13:30:51;;;;;;;11.27;4.20;;;31.80;53.90;;;;;;4995197;28;20088;-68